Esther, Alberta

Past 24 Hour Conditions

This table is a summary of hourly weather conditions for the past 24 hours. This summary includes the following parameters: temperature, humidity, dew point, wind speed and direction, air pressure, visibility and/or wind chill and humidex.
Date / Time
(MDT)
Conditions Temp (°F) Humidity (%) Dew Point (°F) Wind (mph) Pressure (inches) Vis (mi) Wind Chill
18 April 2014
2:00 N/A 37 89 34 E 10 29.8 N/A *
1:00 N/A 37 88 34 E 14 29.8 N/A *
00:00 N/A 38 85 34 E 15 29.8 N/A *
17 April 2014
23:00 N/A 39 83 35 E 15 29.8 N/A *
22:00 N/A 40 77 33 E 11 29.8 N/A *
21:00 N/A 41 69 32 E 14 29.8 N/A *
20:00 N/A 43 64 32 ENE 16 gust 23 29.8 N/A *
19:00 N/A 48 54 32 ENE 15 29.8 N/A *
18:00 N/A 51   47 31 E 10 29.9 N/A *
17:00 N/A 49 50 31 ENE 14 29.9 N/A *
16:00 N/A 46 57 32 ENE 15 29.9 N/A *
15:00 N/A 45 62 33 E 13 gust 20 29.9 N/A *
14:00 N/A 42 60 29 E 16 gust 21 29.9 N/A *
13:00 N/A 40 66 29 E 19 29.9 N/A *
12:00 N/A 36 74 28 E 18 30.0 N/A *
11:00 N/A 32 79 26 ESE 20 30.0 N/A 20
10:00 N/A 30 81 25 E 20 30.0 N/A 17
9:00 N/A 28 87 24 ESE 19 gust 24 30.0 N/A 15
8:00 N/A 27 87 23 ESE 19 gust 24 30.0 N/A 14
7:00 N/A 26   86 23 ESE 16 gust 22 30.0 N/A 14
6:00 N/A 27 82 22 ESE 17 30.0 N/A 14
5:00 N/A 27 82 22 E 17 30.1 N/A 14
4:00 N/A 26   86 23 E 18 30.1 N/A 13
3:00 N/A 26   88 23 E 17 30.1 N/A 13
2:00 N/A 26   90 23 E 15 gust 21 30.2 N/A 14
N/A
Not available
 ↑ 
Highest temperature
 ↓ 
Lowest temperature
*
Value not significant.

If you require additional historical weather information, please visit Climate Data Online.